createdAt,value
2022-11-14T00:19:33.282Z,24.23
2022-11-14T00:23:59.708Z,24.77
2022-11-14T00:26:48.592Z,19.10
2022-11-14T00:31:22.870Z,20.80
2022-11-14T00:34:09.991Z,23.30
2022-11-14T00:36:58.319Z,22.23
2022-11-14T00:44:36.624Z,19.97
2022-11-14T00:58:49.816Z,22.00
2022-11-14T01:11:56.592Z,19.40
2022-11-14T01:16:27.134Z,19.53
2022-11-14T01:28:45.916Z,22.40
2022-11-14T01:33:14.809Z,20.90
2022-11-14T01:52:31.886Z,26.10
2022-11-14T01:57:07.553Z,28.47
2022-11-14T02:10:42.831Z,26.10
2022-11-14T02:23:42.925Z,34.30
2022-11-14T02:45:55.164Z,25.60
2022-11-14T02:48:43.312Z,23.50
2022-11-14T02:53:27.853Z,24.90
2022-11-14T03:11:24.895Z,26.10
2022-11-14T03:15:51.971Z,22.70
2022-11-14T03:37:10.198Z,20.17
2022-11-14T03:39:56.997Z,22.23
2022-11-14T03:54:13.934Z,20.13
2022-11-14T03:58:17.174Z,20.30
2022-11-14T04:01:05.515Z,23.17
2022-11-14T04:03:52.624Z,19.13
2022-11-14T04:06:39.882Z,23.67
2022-11-14T04:10:16.705Z,20.80
2022-11-14T04:13:55.865Z,21.67
2022-11-14T04:16:45.215Z,20.20
2022-11-14T04:19:32.942Z,21.30
2022-11-14T04:42:51.993Z,21.60
2022-11-14T04:45:58.481Z,20.90
2022-11-14T04:59:55.524Z,23.27
2022-11-14T05:04:00.314Z,23.77
2022-11-14T05:06:48.833Z,29.03
2022-11-14T05:14:56.551Z,24.17
2022-11-14T05:19:28.212Z,26.37
2022-11-14T05:23:10.268Z,29.53
2022-11-14T05:32:16.537Z,30.93
2022-11-14T05:35:29.138Z,30.00
2022-11-14T05:38:16.463Z,29.37
2022-11-14T05:41:09.267Z,30.90
2022-11-14T05:43:55.891Z,28.90
2022-11-14T05:46:42.595Z,29.10
2022-11-14T05:49:29.437Z,28.40
2022-11-14T05:57:18.367Z,30.27
2022-11-14T06:00:05.553Z,26.63
2022-11-14T06:02:54.069Z,29.17
2022-11-14T06:05:40.848Z,26.33
2022-11-14T06:08:29.648Z,23.47
2022-11-14T06:11:18.569Z,25.63
2022-11-14T06:14:11.004Z,26.33
2022-11-14T06:16:58.517Z,25.03
2022-11-14T06:19:45.530Z,25.40
2022-11-14T06:22:33.438Z,23.60
2022-11-14T06:25:20.041Z,24.13
2022-11-14T06:38:24.292Z,31.67
2022-11-14T06:41:13.160Z,28.53
2022-11-14T06:44:29.709Z,26.43
2022-11-14T06:48:57.919Z,25.90
2022-11-14T06:53:07.076Z,25.73
2022-11-14T07:01:05.185Z,31.53
2022-11-14T07:03:51.848Z,30.57
2022-11-14T07:07:54.316Z,31.60
2022-11-14T07:12:23.176Z,29.93
2022-11-14T07:15:10.911Z,32.23
2022-11-14T07:17:59.766Z,34.80
2022-11-14T07:36:22.105Z,34.17
2022-11-14T07:40:59.502Z,29.90
2022-11-14T07:43:48.579Z,30.47
2022-11-14T07:46:35.361Z,29.90
2022-11-14T07:50:17.611Z,34.37
2022-11-14T07:54:12.022Z,32.07
2022-11-14T07:56:59.903Z,29.67
2022-11-14T08:00:38.042Z,29.77
2022-11-14T08:05:08.649Z,25.70
2022-11-14T08:12:25.760Z,28.17
2022-11-14T08:16:54.217Z,31.83
2022-11-14T08:20:10.866Z,28.03
2022-11-14T08:23:50.890Z,25.43
2022-11-14T08:31:02.575Z,29.70
2022-11-14T08:38:22.297Z,30.73
2022-11-14T08:41:13.619Z,25.83
2022-11-14T08:45:18.461Z,28.80
2022-11-14T09:07:42.574Z,29.40
2022-11-14T09:15:18.550Z,27.47
2022-11-14T09:18:05.606Z,27.40
2022-11-14T09:20:54.921Z,23.47
2022-11-14T09:23:44.423Z,23.93
2022-11-14T09:26:31.223Z,27.43
2022-11-14T09:29:19.089Z,29.60
2022-11-14T09:32:07.528Z,30.17
2022-11-14T09:34:54.215Z,28.90
2022-11-14T09:37:41.378Z,26.33
2022-11-14T09:40:29.121Z,32.17
2022-11-14T09:43:30.373Z,29.70
2022-11-14T09:46:21.463Z,30.27
2022-11-14T09:49:24.698Z,25.30
2022-11-14T09:52:18.956Z,29.07
2022-11-14T09:55:13.128Z,28.20
2022-11-14T09:58:00.355Z,26.17
2022-11-14T10:00:53.129Z,31.33
2022-11-14T10:03:49.295Z,27.60
2022-11-14T10:06:43.708Z,30.07
2022-11-14T10:09:55.495Z,27.30
2022-11-14T10:12:47.476Z,28.93
2022-11-14T10:15:37.227Z,30.10
2022-11-14T10:18:36.841Z,25.93
2022-11-14T10:21:39.640Z,31.50
2022-11-14T10:24:51.794Z,22.20
2022-11-14T10:27:44.767Z,26.20
2022-11-14T10:30:38.133Z,31.97
2022-11-14T10:33:32.355Z,26.27
2022-11-14T10:36:23.750Z,27.30
2022-11-14T10:39:42.448Z,29.97
2022-11-14T10:42:34.810Z,31.73
2022-11-14T10:45:26.235Z,32.93
2022-11-14T10:48:16.589Z,28.77
2022-11-14T10:51:06.888Z,28.30
2022-11-14T10:53:56.901Z,26.47
2022-11-14T10:56:53.179Z,30.40
2022-11-14T11:00:12.672Z,27.10
2022-11-14T11:21:24.858Z,23.07
2022-11-14T11:34:33.769Z,22.53
2022-11-14T11:46:31.215Z,24.23
2022-11-14T12:07:34.847Z,27.00
2022-11-14T12:10:25.380Z,24.17
2022-11-14T12:13:42.625Z,22.37
2022-11-14T12:17:47.644Z,20.40
2022-11-14T12:21:32.687Z,24.40
2022-11-14T12:53:42.445Z,18.27
2022-11-14T13:16:32.272Z,19.77
2022-11-14T13:21:00.472Z,19.27
2022-11-14T13:33:44.488Z,22.27
2022-11-14T13:45:53.864Z,22.70
2022-11-14T13:57:46.397Z,22.33
2022-11-14T14:05:22.913Z,27.63
2022-11-14T14:22:10.968Z,30.10
2022-11-14T14:26:38.410Z,29.40
2022-11-14T14:29:28.177Z,26.80
2022-11-14T14:42:13.648Z,28.33
2022-11-14T14:46:40.526Z,30.33
2022-11-14T15:12:54.214Z,40.63
2022-11-14T15:16:57.764Z,45.00
2022-11-14T15:21:26.644Z,44.07
2022-11-14T15:24:16.518Z,46.43
2022-11-14T15:37:24.852Z,54.33
2022-11-14T15:41:56.897Z,57.53
2022-11-14T15:44:47.186Z,51.57
2022-11-14T15:49:14.575Z,58.57
2022-11-14T16:03:13.629Z,58.30
2022-11-14T16:06:02.905Z,52.73
2022-11-14T16:09:17.033Z,56.30
2022-11-14T16:12:29.217Z,58.13
2022-11-14T16:21:08.743Z,56.23
2022-11-14T16:23:58.364Z,51.87
2022-11-14T16:31:28.522Z,51.23
2022-11-14T16:34:19.564Z,51.07
2022-11-14T16:37:06.381Z,61.53
2022-11-14T16:39:54.649Z,58.07
2022-11-14T16:43:01.715Z,58.07
2022-11-14T16:45:48.589Z,56.57
2022-11-14T16:49:26.163Z,53.43
2022-11-14T16:52:13.188Z,61.50
2022-11-14T16:55:02.055Z,57.03
2022-11-14T16:57:49.435Z,56.10
2022-11-14T17:01:01.330Z,61.30
2022-11-14T17:03:49.358Z,58.27
2022-11-14T17:06:36.351Z,61.03
2022-11-14T17:09:25.127Z,58.23
2022-11-14T17:12:13.742Z,66.00
2022-11-14T17:15:25.449Z,64.37
2022-11-14T17:18:12.567Z,56.50
2022-11-14T17:20:59.390Z,63.80
2022-11-14T17:23:46.687Z,65.97
2022-11-14T17:26:33.434Z,63.07
2022-11-14T17:29:47.869Z,56.80
2022-11-14T17:32:35.819Z,61.40
2022-11-14T17:35:22.638Z,58.37
2022-11-14T17:38:10.560Z,54.40
2022-11-14T17:40:58.411Z,64.93
2022-11-14T17:44:15.462Z,59.17
2022-11-14T17:47:06.145Z,60.53
2022-11-14T17:49:53.739Z,62.90
2022-11-14T17:53:33.973Z,64.53
2022-11-14T17:56:22.951Z,58.50
2022-11-14T17:59:14.387Z,55.30
2022-11-14T18:02:56.800Z,65.63
2022-11-14T18:05:44.298Z,63.87
2022-11-14T18:08:32.647Z,57.40
2022-11-14T18:11:21.433Z,67.33
2022-11-14T18:14:09.774Z,66.13
2022-11-14T18:18:36.805Z,61.07
2022-11-14T18:21:27.830Z,67.13
2022-11-14T18:24:15.580Z,64.90
2022-11-14T18:27:07.091Z,63.20
2022-11-14T18:30:03.959Z,65.17
2022-11-14T18:33:36.245Z,61.33
2022-11-14T18:38:01.634Z,64.17
2022-11-14T18:40:56.935Z,59.23
2022-11-14T18:43:49.145Z,67.83
2022-11-14T18:46:37.869Z,65.07
2022-11-14T18:49:28.795Z,64.57
2022-11-14T18:54:10.492Z,72.07
2022-11-14T19:01:48.283Z,71.93
2022-11-14T19:04:37.373Z,74.90
2022-11-14T19:07:27.158Z,73.57
2022-11-14T19:10:17.630Z,69.23
2022-11-14T19:13:58.234Z,70.57
2022-11-14T19:16:53.326Z,73.60
2022-11-14T19:19:41.929Z,71.30
2022-11-14T19:22:30.437Z,84.57
2022-11-14T19:25:18.292Z,78.60
2022-11-14T19:29:27.403Z,76.67
2022-11-14T19:33:39.816Z,70.67
2022-11-14T19:36:58.412Z,70.70
2022-11-14T19:39:39.425Z,78.80
2022-11-14T19:42:28.189Z,72.30
2022-11-14T19:45:18.336Z,85.47
2022-11-14T19:48:08.367Z,81.47
2022-11-14T20:01:21.970Z,71.17
2022-11-14T20:09:06.273Z,72.53
2022-11-14T20:12:52.862Z,74.47
2022-11-14T20:15:41.804Z,79.53
2022-11-14T20:18:35.996Z,80.70
2022-11-14T20:25:54.590Z,74.37
2022-11-14T20:29:15.845Z,77.90
2022-11-14T20:42:16.484Z,69.57
2022-11-14T20:45:07.506Z,74.47
2022-11-14T20:57:35.926Z,77.90
2022-11-14T21:06:19.616Z,79.53
2022-11-14T21:09:42.642Z,82.53
2022-11-14T21:13:55.062Z,94.00
2022-11-14T21:16:43.043Z,92.97
2022-11-14T21:19:31.126Z,79.30
2022-11-14T21:26:29.525Z,89.93
2022-11-14T21:29:36.862Z,81.93
2022-11-14T21:32:27.898Z,80.90
2022-11-14T21:35:15.912Z,75.17
2022-11-14T21:38:03.065Z,86.83
2022-11-14T21:40:56.019Z,86.47
2022-11-14T21:45:12.226Z,82.33
2022-11-14T21:49:40.925Z,86.83
2022-11-14T21:58:34.098Z,87.93
2022-11-14T22:09:31.793Z,90.87
2022-11-14T22:13:50.302Z,90.33
2022-11-14T22:16:41.054Z,80.07
2022-11-14T22:21:08.063Z,80.57
2022-11-14T22:24:24.896Z,87.67
2022-11-14T22:28:33.498Z,80.50
2022-11-14T22:31:21.410Z,94.50
2022-11-14T22:44:32.259Z,84.40
2022-11-14T22:52:14.255Z,92.03
2022-11-14T22:56:18.285Z,94.13
2022-11-14T22:59:05.152Z,88.53
2022-11-14T23:03:09.530Z,89.60
2022-11-14T23:07:38.417Z,102.43
2022-11-14T23:20:25.035Z,101.00
2022-11-14T23:23:39.820Z,88.53
2022-11-14T23:26:28.183Z,86.77
2022-11-14T23:29:43.288Z,110.27
2022-11-14T23:32:31.124Z,102.90
2022-11-14T23:35:45.429Z,90.73
2022-11-14T23:40:14.167Z,89.50
